Time;durP1;ratioP1;P1;durP2;ratioP2;P2;SDS_P1;SDS_P2;PMS_P1;PMS_P2;Temp;Humidity;BMP_temperature;BMP_pressure;BME280_temperature;BME280_humidity;BME280_pressure;Samples;Min_cycle;Max_cycle;Signal;HPM_P1;HPM_P2
2023/07/01 00:00:35;;;;;;;0.75;0.75;;;22.10;70.60;;;;;;5017827;28;20532;-74
2023/07/01 00:03:03;;;;;;;0.50;0.50;;;22.10;70.60;;;;;;5062641;28;20032;-74
2023/07/01 00:05:28;;;;;;;0.50;0.50;;;22.10;70.70;;;;;;5049424;28;20101;-73
2023/07/01 00:07:54;;;;;;;0.60;0.60;;;22.20;70.80;;;;;;5030991;28;20049;-73
2023/07/01 00:10:19;;;;;;;0.70;0.70;;;22.10;70.90;;;;;;5023608;28;20041;-73
2023/07/01 00:12:45;;;;;;;0.70;0.70;;;22.20;70.80;;;;;;5017396;28;20085;-74
2023/07/01 00:15:11;;;;;;;0.70;0.70;;;22.10;70.80;;;;;;5033827;28;20048;-73
2023/07/01 00:17:36;;;;;;;0.60;0.60;;;22.10;70.90;;;;;;5026513;28;20049;-74
2023/07/01 00:20:02;;;;;;;0.70;0.70;;;22.10;70.90;;;;;;5026945;28;20141;-73
2023/07/01 00:22:28;;;;;;;0.60;0.60;;;22.10;71.10;;;;;;5029078;28;20128;-73
2023/07/01 00:24:53;;;;;;;0.68;0.68;;;22.10;70.90;;;;;;5027022;28;20128;-74
2023/07/01 00:27:19;;;;;;;0.60;0.60;;;22.20;70.80;;;;;;5032820;28;20127;-74
2023/07/01 00:29:44;;;;;;;0.50;0.47;;;22.10;71.20;;;;;;5028146;28;20049;-74
2023/07/01 00:32:10;;;;;;;0.50;0.50;;;22.10;71.10;;;;;;5044407;28;20048;-74
2023/07/01 00:34:36;;;;;;;0.57;0.57;;;22.10;71.20;;;;;;5033748;28;20404;-78
2023/07/01 00:37:02;;;;;;;0.60;0.60;;;22.10;71.30;;;;;;5048683;28;20522;-74
2023/07/01 00:39:27;;;;;;;0.38;0.38;;;22.10;71.20;;;;;;5032613;28;20037;-74
2023/07/01 00:41:53;;;;;;;0.80;0.80;;;22.10;71.10;;;;;;5024829;28;20462;-74
2023/07/01 00:44:20;;;;;;;0.60;0.60;;;22.10;71.00;;;;;;5044561;28;20064;-74
2023/07/01 00:46:46;;;;;;;0.73;0.73;;;22.10;71.00;;;;;;5026896;28;20046;-74
2023/07/01 00:49:11;;;;;;;0.80;0.80;;;22.20;71.10;;;;;;5015197;28;20083;-73
2023/07/01 00:51:38;;;;;;;0.60;0.60;;;22.10;70.90;;;;;;5061122;28;20469;-74
2023/07/01 00:54:04;;;;;;;0.60;0.60;;;22.10;70.90;;;;;;5029687;28;20404;-73
2023/07/01 00:56:29;;;;;;;0.45;0.45;;;22.10;70.90;;;;;;5029028;28;20059;-73
2023/07/01 00:58:55;;;;;;;0.60;0.60;;;22.10;70.90;;;;;;5029565;28;20050;-74
2023/07/01 01:01:24;;;;;;;0.60;0.60;;;22.20;71.10;;;;;;5027625;28;20041;-73
2023/07/01 01:04:03;;;;;;;0.70;0.70;;;22.10;71.00;;;;;;5010930;28;20041;-74
2023/07/01 01:06:36;;;;;;;0.55;0.55;;;22.10;71.00;;;;;;5049610;28;20077;-74
2023/07/01 01:09:03;;;;;;;0.67;0.67;;;22.10;71.50;;;;;;5011022;28;20041;-74
2023/07/01 01:11:32;;;;;;;0.60;0.60;;;22.10;71.20;;;;;;5040329;28;20041;-73
2023/07/01 01:13:59;;;;;;;0.82;0.80;;;22.10;70.90;;;;;;5041986;28;20057;-74
2023/07/01 01:16:25;;;;;;;0.50;0.50;;;22.10;71.20;;;;;;5042041;28;20072;-74
2023/07/01 01:18:51;;;;;;;0.55;0.55;;;22.10;71.20;;;;;;5029258;28;20507;-74
2023/07/01 01:21:16;;;;;;;0.52;0.52;;;22.10;71.00;;;;;;5029026;28;20144;-74
2023/07/01 01:23:56;;;;;;;0.70;0.70;;;22.10;71.00;;;;;;5057384;28;20071;-74
2023/07/01 01:26:26;;;;;;;0.70;0.70;;;22.10;71.00;;;;;;5032327;28;20132;-74
2023/07/01 01:28:52;;;;;;;0.60;0.60;;;22.10;71.10;;;;;;5020339;28;20053;-75
2023/07/01 01:31:19;;;;;;;0.63;0.63;;;22.10;71.10;;;;;;5071316;28;20052;-74
2023/07/01 01:33:45;;;;;;;0.40;0.40;;;22.10;71.00;;;;;;5045815;28;20507;-74
2023/07/01 01:36:47;;;;;;;0.50;0.50;;;22.10;71.10;;;;;;5035619;28;20047;-74
2023/07/01 01:39:13;;;;;;;0.50;0.50;;;22.10;71.70;;;;;;5008887;28;20044;-74
2023/07/01 01:42:04;;;;;;;0.50;0.50;;;22.10;70.90;;;;;;5051786;28;20411;-74
2023/07/01 01:44:37;;;;;;;0.47;0.47;;;22.10;71.00;;;;;;5027927;28;20097;-74
2023/07/01 01:47:02;;;;;;;0.63;0.63;;;22.10;70.90;;;;;;5050914;28;20047;-74
2023/07/01 01:49:28;;;;;;;0.73;0.60;;;22.10;70.90;;;;;;5033178;28;20161;-74
2023/07/01 01:51:54;;;;;;;0.52;0.52;;;22.10;71.10;;;;;;5072359;28;20125;-74
2023/07/01 01:54:19;;;;;;;0.68;0.68;;;22.10;70.90;;;;;;5052368;28;20049;-74
2023/07/01 01:56:45;;;;;;;0.70;0.70;;;22.10;71.00;;;;;;5036026;28;20037;-74
2023/07/01 01:59:11;;;;;;;0.50;0.50;;;22.10;71.00;;;;;;5034646;28;20467;-74
2023/07/01 02:01:36;;;;;;;0.50;0.50;;;22.10;71.00;;;;;;5047143;28;20094;-74
2023/07/01 02:04:02;;;;;;;0.55;0.55;;;22.10;70.90;;;;;;5049558;28;20041;-74
2023/07/01 02:06:27;;;;;;;0.55;0.55;;;22.10;71.00;;;;;;5068330;28;20131;-74
2023/07/01 02:08:53;;;;;;;0.50;0.50;;;22.10;70.90;;;;;;5049995;28;20040;-74
2023/07/01 02:11:18;;;;;;;0.50;0.50;;;22.10;70.90;;;;;;5043364;28;20037;-74
2023/07/01 02:13:44;;;;;;;0.50;0.50;;;22.10;71.00;;;;;;5046081;28;20049;-74
2023/07/01 02:16:09;;;;;;;0.47;0.47;;;22.10;70.90;;;;;;5049466;28;20104;-74
2023/07/01 02:18:35;;;;;;;0.68;0.65;;;22.10;71.00;;;;;;5066143;28;20518;-74
2023/07/01 02:21:00;;;;;;;0.38;0.38;;;22.10;71.00;;;;;;5019460;28;20142;-74
2023/07/01 02:23:26;;;;;;;0.40;0.40;;;22.10;70.90;;;;;;5044956;28;20513;-74
2023/07/01 02:25:52;;;;;;;0.50;0.50;;;22.10;71.00;;;;;;5045937;28;20037;-74
2023/07/01 02:28:18;;;;;;;0.68;0.68;;;22.10;70.90;;;;;;5035334;28;20049;-74
2023/07/01 02:30:43;;;;;;;0.50;0.50;;;22.10;70.90;;;;;;5054006;28;20065;-74
2023/07/01 02:33:09;;;;;;;0.40;0.40;;;22.10;70.90;;;;;;5052086;28;20072;-74
2023/07/01 02:35:35;;;;;;;0.77;0.50;;;22.10;71.00;;;;;;5067030;28;20510;-74
2023/07/01 02:38:00;;;;;;;0.50;0.50;;;22.10;71.00;;;;;;5051665;28;20148;-74
2023/07/01 02:40:26;;;;;;;0.50;0.50;;;22.10;70.90;;;;;;5035742;28;20048;-74
2023/07/01 02:42:51;;;;;;;0.65;0.65;;;22.10;71.00;;;;;;5064580;28;20569;-74
2023/07/01 02:45:17;;;;;;;0.57;0.57;;;22.10;71.20;;;;;;5021078;28;20418;-74
2023/07/01 02:47:42;;;;;;;0.50;0.50;;;22.10;71.10;;;;;;5049881;28;20055;-74
2023/07/01 02:50:08;;;;;;;0.50;0.50;;;22.10;70.90;;;;;;5049906;28;20418;-74
2023/07/01 02:52:34;;;;;;;0.52;0.52;;;22.10;71.30;;;;;;5037639;28;20045;-74
2023/07/01 02:54:59;;;;;;;0.40;0.40;;;22.10;71.00;;;;;;5033644;28;20581;-74
2023/07/01 02:57:25;;;;;;;0.40;0.40;;;22.10;71.00;;;;;;5055615;28;20805;-74
2023/07/01 02:59:50;;;;;;;0.45;0.40;;;22.10;72.00;;;;;;5032153;28;20252;-74
2023/07/01 03:02:16;;;;;;;0.38;0.38;;;22.10;71.20;;;;;;5028505;28;20037;-74
2023/07/01 03:04:42;;;;;;;0.50;0.50;;;22.10;71.10;;;;;;5019431;28;20040;-73
2023/07/01 03:07:07;;;;;;;0.40;0.40;;;22.00;71.20;;;;;;5023027;28;20045;-74
2023/07/01 03:09:33;;;;;;;0.50;0.40;;;22.10;71.20;;;;;;5034697;28;20090;-74
2023/07/01 03:11:58;;;;;;;0.60;0.50;;;22.10;71.10;;;;;;5039203;28;20037;-74
2023/07/01 03:14:24;;;;;;;0.30;0.30;;;22.10;71.10;;;;;;5016439;28;20076;-73
2023/07/01 03:16:52;;;;;;;0.40;0.40;;;22.10;71.20;;;;;;5027756;28;20064;-74
2023/07/01 03:19:17;;;;;;;0.50;0.50;;;22.10;71.20;;;;;;5065346;28;20124;-74
2023/07/01 03:21:44;;;;;;;0.50;0.50;;;22.00;71.00;;;;;;5061393;28;20128;-73
2023/07/01 03:24:09;;;;;;;0.32;0.32;;;22.00;71.00;;;;;;5028545;28;20042;-74
2023/07/01 03:26:35;;;;;;;0.40;0.40;;;22.00;71.70;;;;;;5014446;28;20465;-74
2023/07/01 03:29:01;;;;;;;0.80;0.40;;;22.10;70.90;;;;;;5032804;28;20110;-74
2023/07/01 03:31:27;;;;;;;0.30;0.30;;;22.00;71.00;;;;;;5019166;28;20029;-74
2023/07/01 03:33:53;;;;;;;0.50;0.50;;;22.00;70.90;;;;;;5053123;28;20042;-75
2023/07/01 03:36:18;;;;;;;0.40;0.40;;;22.00;71.20;;;;;;5038958;28;20429;-74
2023/07/01 03:38:45;;;;;;;0.43;0.43;;;22.00;71.10;;;;;;5037787;28;20049;-74
2023/07/01 03:41:10;;;;;;;0.40;0.40;;;22.00;70.90;;;;;;5054245;28;20056;-74
2023/07/01 03:43:36;;;;;;;0.40;0.40;;;22.10;71.00;;;;;;5068809;28;20045;-74
2023/07/01 03:46:02;;;;;;;0.43;0.43;;;22.10;71.20;;;;;;5034883;28;20052;-74
2023/07/01 03:48:28;;;;;;;0.35;0.35;;;22.00;70.90;;;;;;5031920;28;20043;-74
2023/07/01 03:50:54;;;;;;;2.13;0.40;;;22.00;71.10;;;;;;5038480;28;20036;-74
2023/07/01 03:53:19;;;;;;;0.50;0.50;;;22.00;71.20;;;;;;5055286;28;22032;-74
2023/07/01 03:55:45;;;;;;;0.38;0.38;;;22.00;71.20;;;;;;5051119;28;20036;-74
2023/07/01 03:58:11;;;;;;;0.30;0.30;;;22.00;70.90;;;;;;5049237;28;20046;-74
2023/07/01 04:00:36;;;;;;;0.47;0.47;;;22.10;71.10;;;;;;5051874;28;20129;-74
2023/07/01 04:03:05;;;;;;;0.40;0.40;;;22.00;71.00;;;;;;5054522;28;20090;-74
2023/07/01 04:05:31;;;;;;;0.57;0.57;;;22.00;71.10;;;;;;5045901;28;20047;-74
2023/07/01 04:07:56;;;;;;;0.30;0.30;;;22.00;70.90;;;;;;5067193;28;20094;-74
2023/07/01 04:10:22;;;;;;;0.50;0.50;;;22.00;71.00;;;;;;5064090;28;20041;-74
2023/07/01 04:12:47;;;;;;;0.30;0.30;;;22.00;71.00;;;;;;5032923;28;20536;-74
2023/07/01 04:15:13;;;;;;;0.47;0.47;;;22.00;71.10;;;;;;5038950;28;20033;-74
2023/07/01 04:17:43;;;;;;;0.30;0.30;;;22.00;70.90;;;;;;5026731;28;20045;-74
2023/07/01 04:20:10;;;;;;;0.30;0.30;;;22.00;70.90;;;;;;5033075;28;20048;-74
2023/07/01 04:22:36;;;;;;;0.40;0.40;;;22.00;71.00;;;;;;5059638;28;20051;-73
2023/07/01 04:25:02;;;;;;;0.30;0.30;;;22.00;71.30;;;;;;5031923;28;20045;-73
2023/07/01 04:27:28;;;;;;;0.47;0.47;;;22.00;71.20;;;;;;5051640;28;20048;-74
2023/07/01 04:29:53;;;;;;;0.38;0.30;;;22.00;71.10;;;;;;5026441;28;20041;-74
2023/07/01 04:32:19;;;;;;;0.30;0.30;;;22.00;71.10;;;;;;5043660;28;20051;-73
2023/07/01 04:34:44;;;;;;;0.40;0.40;;;22.00;71.10;;;;;;5047215;28;20127;-75
2023/07/01 04:37:10;;;;;;;0.40;0.40;;;22.00;71.00;;;;;;5046534;28;20057;-73
2023/07/01 04:39:36;;;;;;;0.40;0.40;;;22.10;71.00;;;;;;5061889;28;20063;-72
2023/07/01 04:42:02;;;;;;;0.30;0.30;;;22.00;71.10;;;;;;5036188;28;20502;-73
2023/07/01 04:44:28;;;;;;;0.93;0.45;;;22.00;71.10;;;;;;5047972;28;20040;-73
2023/07/01 04:46:53;;;;;;;1.58;0.30;;;22.00;71.20;;;;;;5052075;28;20044;-73
2023/07/01 04:49:19;;;;;;;0.30;0.30;;;22.00;71.10;;;;;;5053102;28;20078;-72
2023/07/01 04:51:44;;;;;;;0.40;0.40;;;22.00;71.10;;;;;;5043804;28;20085;-73
2023/07/01 04:54:10;;;;;;;0.40;0.40;;;22.00;71.80;;;;;;5035386;28;20040;-72
2023/07/01 04:56:36;;;;;;;0.30;0.30;;;22.00;70.90;;;;;;5064686;28;20470;-73
2023/07/01 04:59:01;;;;;;;0.68;0.40;;;22.00;70.90;;;;;;5049178;28;20107;-73
2023/07/01 05:01:27;;;;;;;0.73;0.50;;;22.00;71.00;;;;;;5038252;28;20045;-72
2023/07/01 05:03:53;;;;;;;0.50;0.40;;;22.00;71.00;;;;;;5027158;28;20045;-74
2023/07/01 05:06:18;;;;;;;1.23;0.40;;;22.00;71.00;;;;;;5053143;28;20041;-73
2023/07/01 05:08:44;;;;;;;0.95;0.47;;;22.00;71.00;;;;;;5021694;28;20037;-72
2023/07/01 05:11:10;;;;;;;0.77;0.40;;;22.00;71.00;;;;;;5037481;28;20037;-72
2023/07/01 05:13:35;;;;;;;1.85;0.63;;;22.00;70.80;;;;;;5056003;28;20041;-72
2023/07/01 05:16:01;;;;;;;0.45;0.40;;;22.00;70.80;;;;;;5052418;28;20132;-72
2023/07/01 05:18:27;;;;;;;0.30;0.30;;;22.00;70.80;;;;;;5040789;28;20118;-72
2023/07/01 05:20:52;;;;;;;0.30;0.30;;;22.00;70.80;;;;;;5057261;28;20079;-72
2023/07/01 05:23:18;;;;;;;0.30;0.30;;;22.00;70.90;;;;;;5052438;28;20095;-72
2023/07/01 05:25:46;;;;;;;0.30;0.30;;;22.00;70.90;;;;;;5034026;28;20037;-72
2023/07/01 05:28:12;;;;;;;0.32;0.32;;;22.00;70.70;;;;;;5064819;28;20049;-72
2023/07/01 05:30:38;;;;;;;0.60;0.43;;;22.10;70.70;;;;;;5072629;28;20036;-72
2023/07/01 05:33:04;;;;;;;0.20;0.20;;;22.10;70.90;;;;;;5019789;28;20060;-72
2023/07/01 05:35:29;;;;;;;0.30;0.30;;;22.00;70.80;;;;;;5052397;28;20040;-72
2023/07/01 05:37:55;;;;;;;0.30;0.30;;;22.00;70.90;;;;;;5055632;28;20059;-72
2023/07/01 05:40:20;;;;;;;0.20;0.20;;;22.00;70.90;;;;;;5059099;28;20049;-72
2023/07/01 05:42:46;;;;;;;0.45;0.30;;;22.10;70.80;;;;;;5054809;28;20041;-72
2023/07/01 05:45:11;;;;;;;0.50;0.30;;;22.10;70.80;;;;;;5037417;28;20574;-73
2023/07/01 05:47:37;;;;;;;0.30;0.30;;;22.00;70.80;;;;;;5051199;28;20044;-72
2023/07/01 05:50:03;;;;;;;0.55;0.30;;;22.00;70.80;;;;;;5051815;28;20107;-72
2023/07/01 05:52:29;;;;;;;0.30;0.30;;;22.00;70.80;;;;;;5055608;28;20040;-73
2023/07/01 05:54:55;;;;;;;0.30;0.20;;;22.00;70.70;;;;;;5057913;28;20510;-72
2023/07/01 05:57:20;;;;;;;0.35;0.35;;;22.10;70.80;;;;;;5037321;28;20052;-72
2023/07/01 05:59:46;;;;;;;0.43;0.22;;;22.00;70.70;;;;;;5034440;28;20537;-73
2023/07/01 06:02:11;;;;;;;0.45;0.45;;;22.00;70.70;;;;;;5028962;28;20037;-73
2023/07/01 06:04:37;;;;;;;0.30;0.30;;;22.10;70.80;;;;;;5056961;28;20057;-72
2023/07/01 06:07:03;;;;;;;0.40;0.30;;;22.10;70.90;;;;;;5050439;28;20037;-73
2023/07/01 06:09:28;;;;;;;0.25;0.25;;;22.10;70.80;;;;;;5033271;28;20115;-73
2023/07/01 06:11:54;;;;;;;1.08;0.28;;;22.10;70.70;;;;;;5035955;28;20469;-72
2023/07/01 06:14:19;;;;;;;0.30;0.28;;;22.00;70.70;;;;;;5046679;28;20040;-72
2023/07/01 06:16:45;;;;;;;1.40;0.43;;;22.10;70.70;;;;;;5034151;28;20064;-72
2023/07/01 06:19:10;;;;;;;0.40;0.40;;;22.00;70.60;;;;;;5067630;28;20052;-72
2023/07/01 06:21:36;;;;;;;0.30;0.20;;;22.10;70.70;;;;;;5056883;28;20044;-72
2023/07/01 06:24:02;;;;;;;0.40;0.40;;;22.00;70.70;;;;;;5047054;28;20525;-73
2023/07/01 06:26:28;;;;;;;0.43;0.40;;;22.10;70.80;;;;;;5032159;28;20045;-72
2023/07/01 06:28:53;;;;;;;0.20;0.20;;;22.00;70.80;;;;;;5031953;28;20094;-72
2023/07/01 06:31:19;;;;;;;0.20;0.20;;;22.10;70.90;;;;;;5031429;28;20145;-72
2023/07/01 06:33:45;;;;;;;0.20;0.20;;;22.00;70.80;;;;;;5033302;28;20030;-72
2023/07/01 06:36:10;;;;;;;0.28;0.20;;;22.00;70.90;;;;;;5033215;28;20045;-72
2023/07/01 06:38:36;;;;;;;0.20;0.20;;;22.00;70.90;;;;;;5032771;28;20057;-72
2023/07/01 06:41:01;;;;;;;0.10;0.10;;;22.00;71.00;;;;;;5030871;28;20506;-73
2023/07/01 06:43:27;;;;;;;0.20;0.20;;;22.10;70.80;;;;;;5033522;28;20402;-72
2023/07/01 06:45:54;;;;;;;0.30;0.30;;;22.00;70.80;;;;;;5047827;28;20045;-72
2023/07/01 06:48:20;;;;;;;0.40;0.38;;;22.00;70.70;;;;;;5035802;28;20102;-73
2023/07/01 06:50:45;;;;;;;0.30;0.30;;;22.00;70.80;;;;;;5044275;28;20457;-72
2023/07/01 06:53:11;;;;;;;0.20;0.20;;;22.00;70.90;;;;;;5045216;28;20067;-72
2023/07/01 06:55:37;;;;;;;0.30;0.30;;;22.10;70.70;;;;;;5029032;28;20518;-72
2023/07/01 06:58:02;;;;;;;1.17;0.20;;;22.00;70.60;;;;;;5037241;28;20046;-73
2023/07/01 07:00:29;;;;;;;0.80;0.30;;;22.10;70.60;;;;;;5053318;28;20135;-72
2023/07/01 07:02:54;;;;;;;0.30;0.30;;;22.00;70.60;;;;;;5046477;28;20131;-72
2023/07/01 07:05:20;;;;;;;0.30;0.30;;;22.10;70.60;;;;;;5030071;28;20144;-72
2023/07/01 07:07:46;;;;;;;0.20;0.20;;;22.10;70.60;;;;;;5013753;28;20091;-72
2023/07/01 07:10:11;;;;;;;0.25;0.25;;;22.10;70.60;;;;;;5034389;28;20057;-72
2023/07/01 07:12:37;;;;;;;0.30;0.22;;;22.00;70.50;;;;;;5034480;28;20058;-72
2023/07/01 07:15:03;;;;;;;0.30;0.30;;;22.10;70.60;;;;;;5029594;28;20041;-72
2023/07/01 07:17:28;;;;;;;0.20;0.20;;;22.00;70.50;;;;;;5013573;28;20101;-72
2023/07/01 07:19:54;;;;;;;0.20;0.20;;;22.00;70.50;;;;;;5047236;28;20104;-72
2023/07/01 07:22:20;;;;;;;0.30;0.22;;;22.10;70.50;;;;;;5027706;28;20072;-73
2023/07/01 07:24:45;;;;;;;0.40;0.40;;;22.10;70.60;;;;;;5021817;28;20045;-73
2023/07/01 07:27:11;;;;;;;0.30;0.30;;;22.00;70.50;;;;;;5030342;28;20133;-72
2023/07/01 07:29:37;;;;;;;0.38;0.38;;;22.10;70.60;;;;;;5025438;28;20049;-73
2023/07/01 07:32:03;;;;;;;0.40;0.30;;;22.00;70.50;;;;;;5026682;28;20038;-73
2023/07/01 07:34:28;;;;;;;0.30;0.30;;;22.10;70.50;;;;;;5047821;28;20041;-72
2023/07/01 07:36:54;;;;;;;0.30;0.30;;;22.10;70.50;;;;;;5049587;28;20499;-72
2023/07/01 07:39:20;;;;;;;0.40;0.38;;;22.10;70.50;;;;;;5045107;28;20407;-72
2023/07/01 07:41:45;;;;;;;0.20;0.20;;;22.10;70.40;;;;;;5028779;28;20050;-72
2023/07/01 07:44:11;;;;;;;0.38;0.38;;;22.10;70.40;;;;;;5027509;28;20045;-73
2023/07/01 07:46:38;;;;;;;0.60;0.50;;;22.10;70.50;;;;;;5043853;28;20058;-73
2023/07/01 07:49:04;;;;;;;0.88;0.38;;;22.10;70.50;;;;;;5025640;28;20112;-73
2023/07/01 07:51:30;;;;;;;0.30;0.30;;;22.10;70.50;;;;;;5051224;28;20045;-72
2023/07/01 07:53:55;;;;;;;0.47;0.30;;;22.10;70.50;;;;;;5032379;28;20099;-72
2023/07/01 07:56:21;;;;;;;0.30;0.25;;;22.10;70.50;;;;;;5017859;28;20029;-72
2023/07/01 07:58:46;;;;;;;0.35;0.35;;;22.10;70.50;;;;;;5057016;28;20529;-72
2023/07/01 08:01:12;;;;;;;0.38;0.38;;;22.10;70.40;;;;;;5035260;28;20112;-73
2023/07/01 08:03:39;;;;;;;0.65;0.45;;;22.10;70.40;;;;;;5033494;28;20049;-72
2023/07/01 08:06:04;;;;;;;0.28;0.28;;;22.10;70.30;;;;;;5044766;28;20033;-74
2023/07/01 08:08:30;;;;;;;0.57;0.47;;;22.10;70.10;;;;;;5031710;28;20425;-72
2023/07/01 08:10:56;;;;;;;0.25;0.25;;;22.10;70.20;;;;;;5031191;28;20040;-72
2023/07/01 08:13:22;;;;;;;0.65;0.52;;;22.10;70.10;;;;;;5036837;28;20041;-73
2023/07/01 08:15:48;;;;;;;0.50;0.50;;;22.10;70.10;;;;;;5055388;28;20047;-72
2023/07/01 08:18:13;;;;;;;0.45;0.45;;;22.10;70.10;;;;;;5033805;28;20450;-73
2023/07/01 08:20:39;;;;;;;0.30;0.30;;;22.10;70.00;;;;;;5048985;28;20056;-73
2023/07/01 08:23:04;;;;;;;1.75;0.47;;;22.10;70.00;;;;;;5050691;28;20037;-72
2023/07/01 08:25:30;;;;;;;0.52;0.52;;;22.10;70.00;;;;;;5030111;28;20082;-72
2023/07/01 08:27:57;;;;;;;0.57;0.50;;;22.10;69.90;;;;;;5045153;28;20418;-72
2023/07/01 08:30:23;;;;;;;0.85;0.85;;;22.10;69.90;;;;;;5025189;28;20046;-72
2023/07/01 08:32:49;;;;;;;0.50;0.50;;;22.10;69.90;;;;;;5034716;28;20129;-72
2023/07/01 08:35:14;;;;;;;1.45;0.40;;;22.20;70.00;;;;;;5031364;28;20414;-72
2023/07/01 08:37:40;;;;;;;0.65;0.55;;;22.20;69.90;;;;;;5032409;28;20049;-72
2023/07/01 08:40:07;;;;;;;0.40;0.40;;;22.20;69.90;;;;;;5031783;28;20431;-73
2023/07/01 08:42:48;;;;;;;0.60;0.60;;;22.10;69.80;;;;;;5034742;28;20104;-73
2023/07/01 08:45:13;;;;;;;0.50;0.50;;;22.20;69.90;;;;;;5049406;28;20090;-73
2023/07/01 08:47:40;;;;;;;0.70;0.70;;;22.20;69.90;;;;;;5047680;28;20243;-72
2023/07/01 08:50:06;;;;;;;0.73;0.70;;;22.10;69.80;;;;;;5033101;28;20037;-72
2023/07/01 08:52:46;;;;;;;0.80;0.80;;;22.10;69.80;;;;;;5035885;28;20041;-73
2023/07/01 08:55:11;;;;;;;0.73;0.73;;;22.10;69.90;;;;;;5050836;28;20037;-73
2023/07/01 08:57:40;;;;;;;0.70;0.70;;;22.10;69.80;;;;;;5070832;28;20111;-72
2023/07/01 09:00:07;;;;;;;0.85;0.85;;;22.10;69.90;;;;;;5051472;28;20047;-72
2023/07/01 09:02:33;;;;;;;0.70;0.70;;;22.10;69.80;;;;;;5053171;28;20045;-72
2023/07/01 09:04:59;;;;;;;0.80;0.80;;;22.20;69.90;;;;;;5065982;28;20048;-73
2023/07/01 09:07:24;;;;;;;0.80;0.80;;;22.20;69.80;;;;;;5010786;28;20123;-73
2023/07/01 09:09:50;;;;;;;1.00;1.00;;;22.20;69.80;;;;;;5063741;28;20090;-72
2023/07/01 09:12:15;;;;;;;1.00;1.00;;;22.20;69.70;;;;;;5049348;28;20369;-73
2023/07/01 09:15:00;;;;;;;1.00;1.00;;;22.20;69.80;;;;;;5006341;28;20080;-73
2023/07/01 09:17:30;;;;;;;1.05;1.05;;;22.20;69.70;;;;;;5048546;28;20472;-73
2023/07/01 09:19:58;;;;;;;1.52;1.42;;;22.20;69.80;;;;;;5027128;28;20054;-73
2023/07/01 09:22:23;;;;;;;1.50;1.38;;;22.20;69.70;;;;;;5026984;28;20478;-73
2023/07/01 09:24:49;;;;;;;1.63;1.52;;;22.20;69.90;;;;;;5032616;28;20137;-72
2023/07/01 09:27:14;;;;;;;1.40;1.38;;;22.20;69.70;;;;;;5030849;28;20572;-73
2023/07/01 09:29:40;;;;;;;0.90;0.90;;;22.20;69.70;;;;;;5024755;28;20049;-72
2023/07/01 09:32:06;;;;;;;1.55;1.45;;;22.20;69.70;;;;;;5027914;28;20048;-73
2023/07/01 09:34:50;;;;;;;1.90;1.60;;;22.20;69.70;;;;;;5027255;28;20122;-72
2023/07/01 09:37:19;;;;;;;1.38;1.38;;;22.20;70.50;;;;;;5025403;28;20492;-73
2023/07/01 09:39:44;;;;;;;1.63;1.52;;;22.20;69.60;;;;;;5043867;28;20060;-72
2023/07/01 09:42:10;;;;;;;1.63;1.52;;;22.20;69.50;;;;;;5027731;28;20057;-73
2023/07/01 09:44:36;;;;;;;2.03;1.92;;;22.20;69.40;;;;;;5028551;28;20053;-72
2023/07/01 09:47:04;;;;;;;1.48;1.42;;;22.20;70.20;;;;;;5049936;28;20052;-72
2023/07/01 09:49:42;;;;;;;1.90;1.80;;;22.20;69.50;;;;;;5049086;28;20053;-73
2023/07/01 09:52:08;;;;;;;1.67;1.58;;;22.20;69.60;;;;;;5032929;28;20054;-73
2023/07/01 09:54:34;;;;;;;2.10;2.00;;;22.20;69.40;;;;;;5044797;28;20048;-72
2023/07/01 09:56:59;;;;;;;1.90;1.80;;;22.30;69.50;;;;;;5038632;28;20474;-72
2023/07/01 09:59:25;;;;;;;2.17;2.08;;;22.20;69.50;;;;;;5034572;28;20119;-73
2023/07/01 10:01:54;;;;;;;2.30;2.20;;;22.20;70.20;;;;;;5030931;28;20068;-72
2023/07/01 10:04:21;;;;;;;2.40;2.30;;;22.20;69.40;;;;;;5034817;28;20050;-73
2023/07/01 10:06:47;;;;;;;1.85;1.75;;;22.20;69.30;;;;;;5037256;28;20044;-72
2023/07/01 10:09:12;;;;;;;1.90;1.80;;;22.20;69.30;;;;;;5035251;28;20045;-73
2023/07/01 10:11:38;;;;;;;2.72;2.55;;;22.30;69.40;;;;;;5043275;28;20517;-72
2023/07/01 10:14:04;;;;;;;2.40;2.30;;;22.30;69.40;;;;;;5036207;28;20044;-72
2023/07/01 10:16:29;;;;;;;2.38;2.28;;;22.30;69.40;;;;;;5044570;28;20048;-73
2023/07/01 10:18:55;;;;;;;2.55;2.45;;;22.30;69.40;;;;;;5053709;28;20043;-72
2023/07/01 10:21:23;;;;;;;2.90;2.70;;;22.30;69.30;;;;;;5035461;28;20124;-72
2023/07/01 10:23:49;;;;;;;2.40;2.30;;;22.30;69.40;;;;;;5024628;28;20449;-72
2023/07/01 10:26:43;;;;;;;3.45;2.55;;;22.30;69.50;;;;;;5034185;28;20041;-73
2023/07/01 10:29:27;;;;;;;2.75;2.65;;;22.30;69.40;;;;;;5028316;28;20029;-72
2023/07/01 10:32:08;;;;;;;2.75;2.65;;;22.30;69.50;;;;;;5029476;28;20045;-72
2023/07/01 10:34:52;;;;;;;2.40;2.30;;;22.30;69.40;;;;;;5031950;28;20037;-72
2023/07/01 10:37:18;;;;;;;;;;;22.30;69.30;;;;;;5028452;28;20053;-73
2023/07/01 10:39:43;;;;;;;2.53;2.42;;;22.30;69.20;;;;;;5034102;28;20029;-72
2023/07/01 10:42:34;;;;;;;2.83;2.72;;;22.30;69.20;;;;;;5033546;28;20435;-72
2023/07/01 10:45:12;;;;;;;3.00;2.80;;;22.30;69.30;;;;;;5044047;28;20047;-72
2023/07/01 10:47:42;;;;;;;5.43;3.03;;;22.30;69.20;;;;;;5032070;28;20041;-72
2023/07/01 10:50:09;;;;;;;3.10;2.90;;;22.30;69.40;;;;;;5031810;28;20050;-72
2023/07/01 10:52:56;;;;;;;2.92;2.72;;;22.30;69.40;;;;;;5015022;28;20037;-73
2023/07/01 10:55:34;;;;;;;3.10;2.90;;;22.30;69.30;;;;;;5030673;28;20091;-73
2023/07/01 10:58:21;;;;;;;3.08;2.88;;;22.30;69.30;;;;;;5033549;28;20534;-73
2023/07/01 11:00:50;;;;;;;8.38;5.57;;;22.30;69.20;;;;;;5047543;28;20534;-73
2023/07/01 11:03:34;;;;;;;8.00;5.70;;;22.30;69.20;;;;;;4340447;28;10022103;-72
2023/07/01 11:06:03;;;;;;;15.70;8.75;;;22.30;69.80;;;;;;5041617;28;20104;-72
2023/07/01 11:08:30;;;;;;;15.43;8.75;;;22.30;70.80;;;;;;5040561;28;20113;-72
2023/07/01 11:10:56;;;;;;;11.00;6.20;;;22.30;70.40;;;;;;5025177;28;20046;-73
2023/07/01 11:13:21;;;;;;;11.13;6.30;;;22.40;70.60;;;;;;5027624;28;20042;-73
2023/07/01 11:16:04;;;;;;;6.40;5.25;;;22.30;70.30;;;;;;5028837;28;20100;-72
2023/07/01 11:18:47;;;;;;;8.15;5.10;;;22.40;69.90;;;;;;5028568;28;20045;-72
2023/07/01 11:21:13;;;;;;;7.07;5.03;;;22.30;69.80;;;;;;5053587;28;20048;-73
2023/07/01 11:23:43;;;;;;;6.88;4.95;;;22.40;69.90;;;;;;5022905;28;20571;-72
2023/07/01 11:26:09;;;;;;;5.43;4.93;;;22.40;69.80;;;;;;5026378;28;20038;-85
2023/07/01 11:28:37;;;;;;;6.22;5.57;;;22.40;69.70;;;;;;5026385;28;20522;-85
2023/07/01 11:31:22;;;;;;;7.20;5.57;;;22.40;69.60;;;;;;5030726;28;20535;-84
2023/07/01 11:33:49;;;;;;;6.90;5.85;;;22.40;69.30;;;;;;5038991;28;20041;-83
2023/07/01 11:36:16;;;;;;;6.35;5.75;;;22.40;69.40;;;;;;5048811;28;20053;-82
2023/07/01 11:38:48;;;;;;;7.78;6.10;;;22.40;69.20;;;;;;5049092;28;20053;-83
2023/07/01 11:41:18;;;;;;;8.80;6.22;;;22.40;69.10;;;;;;5026350;28;20044;-83
2023/07/01 11:43:44;;;;;;;7.18;5.88;;;22.40;69.10;;;;;;5029418;28;20049;-84
2023/07/01 11:46:12;;;;;;;9.60;6.82;;;22.40;68.80;;;;;;5048742;28;20114;-84
2023/07/01 11:48:38;;;;;;;8.02;7.18;;;22.40;68.50;;;;;;5043097;28;20090;-83
2023/07/01 11:51:03;;;;;;;8.23;7.43;;;22.40;68.20;;;;;;5021035;28;21355;-84
2023/07/01 11:53:29;;;;;;;11.48;8.07;;;22.40;68.10;;;;;;5022717;28;20045;-82
2023/07/01 11:56:01;;;;;;;9.82;7.38;;;22.40;68.10;;;;;;5026396;28;20049;-83
2023/07/01 11:58:28;;;;;;;13.93;8.60;;;22.40;68.20;;;;;;5025869;28;20510;-83
2023/07/01 12:00:54;;;;;;;8.43;7.32;;;22.40;68.00;;;;;;5028362;28;20087;-83
2023/07/01 12:03:20;;;;;;;11.05;8.45;;;22.40;67.90;;;;;;5037220;28;20041;-82
2023/07/01 12:05:46;;;;;;;9.50;7.72;;;22.40;67.60;;;;;;5031447;28;20037;-83
2023/07/01 12:08:11;;;;;;;10.82;8.52;;;22.40;67.60;;;;;;5023362;28;20045;-83
2023/07/01 12:10:38;;;;;;;10.02;8.65;;;22.40;67.50;;;;;;5027834;28;20042;-83
2023/07/01 12:13:04;;;;;;;10.65;8.70;;;22.40;67.40;;;;;;5030053;28;20041;-83
2023/07/01 12:15:31;;;;;;;10.13;9.13;;;22.40;67.40;;;;;;5024550;28;20077;-81
2023/07/01 12:18:18;;;;;;;10.65;9.23;;;22.40;67.40;;;;;;5025958;28;20049;-83
2023/07/01 12:20:44;;;;;;;10.13;9.10;;;22.40;67.30;;;;;;5034132;28;20037;-82
2023/07/01 12:23:09;;;;;;;12.20;9.27;;;22.40;67.30;;;;;;5046569;28;20102;-81
2023/07/01 12:25:35;;;;;;;10.50;9.35;;;22.40;67.30;;;;;;5025396;28;20518;-82
2023/07/01 12:28:00;;;;;;;12.60;9.73;;;22.40;67.30;;;;;;5037495;28;20059;-83
2023/07/01 12:30:26;;;;;;;11.50;9.55;;;22.40;67.10;;;;;;5004869;28;20029;-81
2023/07/01 12:32:52;;;;;;;10.23;9.13;;;22.40;67.00;;;;;;5022471;28;20037;-83
2023/07/01 12:35:18;;;;;;;12.88;10.00;;;22.40;67.10;;;;;;5047635;28;20119;-82
2023/07/01 12:37:44;;;;;;;12.35;9.95;;;22.40;66.90;;;;;;5048299;28;20044;-84
2023/07/01 12:40:10;;;;;;;12.48;9.93;;;22.40;66.80;;;;;;5049670;28;20044;-85
2023/07/01 12:42:36;;;;;;;14.30;10.93;;;22.40;66.60;;;;;;5066825;28;20045;-84
2023/07/01 12:45:02;;;;;;;13.80;10.45;;;22.40;66.50;;;;;;5060230;28;20112;-82